Rosebud Indian Reservation, South Dakota
Current Conditions -  °F | °C
As of 2:52 PM on Friday 31 Oct 2014 (Local Time) from KVTN Reporting Station
Clear Clear  
Wind Chill: 36°   Ceiling: Unl
Heat Index: 44°   Visibility: 10mi
Dew Point: 12°   Wind: 18mph
Humidity: 27%   Direction: 150°SSE
Pressure: 30.35"   Gusts: NA
Location:  43.2328°N, 100.853°W
Report Text: KVTN 311952Z AUTO 15016KT 10SM CLR 07/M11 A3035 RMK AO2 SLP299 T00671111
Loading
Personal Weather Stations






























Interactive Weather Map
Tropical Storm Tracking
New forecast layout! Learn more

10-Day Weather Forecast

Advertisements
Track Severe Weather on mobile